createdAt,value
2023-03-21T00:01:52.280Z,9.50
2023-03-21T00:04:20.984Z,11.50
2023-03-21T00:06:48.952Z,13.02
2023-03-21T00:09:16.563Z,11.93
2023-03-21T00:11:44.328Z,11.70
2023-03-21T00:14:14.562Z,10.20
2023-03-21T00:16:45.856Z,10.45
2023-03-21T00:19:14.562Z,9.88
2023-03-21T00:22:05.810Z,10.80
2023-03-21T00:24:30.917Z,10.05
2023-03-21T00:27:15.897Z,9.18
2023-03-21T00:29:46.792Z,10.02
2023-03-21T00:32:14.229Z,9.70
2023-03-21T00:34:59.600Z,8.77
2023-03-21T00:37:30.139Z,10.18
2023-03-21T00:39:57.529Z,9.15
2023-03-21T00:42:25.044Z,9.43
2023-03-21T00:44:52.643Z,9.55
2023-03-21T00:47:20.645Z,9.68
2023-03-21T00:49:50.311Z,9.10
2023-03-21T00:52:27.551Z,9.02
2023-03-21T00:55:02.265Z,8.52
2023-03-21T00:57:38.698Z,8.65
2023-03-21T01:00:10.664Z,8.40
2023-03-21T01:02:38.721Z,9.32
2023-03-21T01:05:06.510Z,8.98
2023-03-21T01:07:33.865Z,8.65
2023-03-21T01:10:01.500Z,9.07
2023-03-21T01:12:28.883Z,9.32
2023-03-21T01:14:57.674Z,8.98
2023-03-21T01:17:25.281Z,11.07
2023-03-21T01:19:52.724Z,8.80
2023-03-21T01:22:20.189Z,9.45
2023-03-21T01:24:55.584Z,8.90
2023-03-21T01:27:27.936Z,9.50
2023-03-21T01:29:55.807Z,9.40
2023-03-21T01:32:23.392Z,9.65
2023-03-21T01:34:50.960Z,9.40
2023-03-21T01:37:19.994Z,9.55
2023-03-21T01:39:47.920Z,9.32
2023-03-21T01:42:15.556Z,8.93
2023-03-21T01:44:57.244Z,9.23
2023-03-21T01:47:25.786Z,9.25
2023-03-21T01:49:56.668Z,9.55
2023-03-21T01:52:36.376Z,8.63
2023-03-21T01:55:07.089Z,8.80
2023-03-21T01:57:51.867Z,8.50
2023-03-21T02:00:25.053Z,9.13
2023-03-21T02:03:06.099Z,8.63
2023-03-21T02:05:44.439Z,8.50
2023-03-21T02:08:13.278Z,8.52
2023-03-21T02:10:42.799Z,9.45
2023-03-21T02:13:11.597Z,8.00
2023-03-21T02:15:41.355Z,8.40
2023-03-21T02:18:44.272Z,9.95
2023-03-21T02:21:33.389Z,8.40
2023-03-21T02:24:20.942Z,7.95
2023-03-21T02:27:04.726Z,8.52
2023-03-21T02:29:54.421Z,8.30
2023-03-21T02:32:41.515Z,8.68
2023-03-21T02:35:12.133Z,8.35
2023-03-21T02:37:51.975Z,8.13
2023-03-21T02:40:40.031Z,8.38
2023-03-21T02:43:22.560Z,8.95
2023-03-21T02:45:53.906Z,8.75
2023-03-21T02:48:50.242Z,8.43
2023-03-21T02:51:22.175Z,9.02
2023-03-21T02:54:16.179Z,8.18
2023-03-21T02:56:40.470Z,8.30
2023-03-21T02:59:08.122Z,8.80
2023-03-21T03:01:35.749Z,8.05
2023-03-21T03:04:03.540Z,8.57
2023-03-21T03:07:09.539Z,7.47
2023-03-21T03:10:13.296Z,9.05
2023-03-21T03:12:54.441Z,8.27
2023-03-21T03:15:41.866Z,8.40
2023-03-21T03:18:31.330Z,8.48
2023-03-21T03:21:08.679Z,8.18
2023-03-21T03:23:48.997Z,8.52
2023-03-21T03:26:27.065Z,8.35
2023-03-21T03:28:58.940Z,8.23
2023-03-21T03:32:03.741Z,9.07
2023-03-21T03:34:34.480Z,8.07
2023-03-21T03:37:04.543Z,7.80
2023-03-21T03:39:36.217Z,8.55
2023-03-21T03:42:28.714Z,7.05
2023-03-21T03:44:57.033Z,7.45
2023-03-21T03:47:56.052Z,7.10
2023-03-21T03:51:01.314Z,6.82
2023-03-21T03:53:32.586Z,7.47
2023-03-21T03:56:00.212Z,7.68
2023-03-21T03:58:39.777Z,7.22
2023-03-21T04:01:14.014Z,7.05
2023-03-21T04:03:49.847Z,7.50
2023-03-21T04:06:18.996Z,7.18
2023-03-21T04:08:47.160Z,6.90
2023-03-21T04:11:15.940Z,7.53
2023-03-21T04:13:45.397Z,7.22
2023-03-21T04:16:14.280Z,7.00
2023-03-21T04:18:42.437Z,7.10
2023-03-21T04:21:10.840Z,7.07
2023-03-21T04:23:39.236Z,6.97
2023-03-21T04:26:06.632Z,7.85
2023-03-21T04:28:36.134Z,7.20
2023-03-21T04:31:16.146Z,7.40
2023-03-21T04:33:52.026Z,7.05
2023-03-21T04:36:28.719Z,7.78
2023-03-21T04:39:00.797Z,7.00
2023-03-21T04:41:28.862Z,7.03
2023-03-21T04:43:57.399Z,7.37
2023-03-21T04:46:24.791Z,7.70
2023-03-21T04:48:52.401Z,7.65
2023-03-21T04:51:19.949Z,8.10
2023-03-21T04:53:49.381Z,8.35
2023-03-21T04:56:17.080Z,7.57
2023-03-21T04:58:45.366Z,8.00
2023-03-21T05:01:14.618Z,8.07
2023-03-21T05:03:42.494Z,7.78
2023-03-21T05:06:10.271Z,7.47
2023-03-21T05:08:37.712Z,7.90
2023-03-21T05:11:05.599Z,7.78
2023-03-21T05:13:33.199Z,8.02
2023-03-21T05:16:00.582Z,8.18
2023-03-21T05:18:28.433Z,7.47
2023-03-21T05:20:56.891Z,7.75
2023-03-21T05:23:24.366Z,7.25
2023-03-21T05:25:52.611Z,7.45
2023-03-21T05:28:20.972Z,7.47
2023-03-21T05:30:49.040Z,7.47
2023-03-21T05:33:17.051Z,7.65
2023-03-21T05:35:44.610Z,7.70
2023-03-21T05:38:12.614Z,7.65
2023-03-21T05:40:48.429Z,7.72
2023-03-21T05:43:15.799Z,8.60
2023-03-21T05:45:43.443Z,7.60
2023-03-21T05:48:11.518Z,8.10
2023-03-21T05:50:42.248Z,8.45
2023-03-21T05:53:10.623Z,6.90
2023-03-21T05:55:39.176Z,7.12
2023-03-21T05:58:08.035Z,8.02
2023-03-21T06:00:35.576Z,7.85
2023-03-21T06:03:04.394Z,8.65
2023-03-21T06:05:32.791Z,9.05
2023-03-21T06:08:00.298Z,8.60
2023-03-21T06:10:28.051Z,7.78
2023-03-21T06:12:55.487Z,7.93
2023-03-21T06:15:23.563Z,9.18
2023-03-21T06:17:51.618Z,8.18
2023-03-21T06:20:19.084Z,9.38
2023-03-21T06:22:46.675Z,9.10
2023-03-21T06:25:14.371Z,9.05
2023-03-21T06:27:41.795Z,8.85
2023-03-21T06:30:09.738Z,9.32
2023-03-21T06:32:37.783Z,10.23
2023-03-21T06:35:07.383Z,9.75
2023-03-21T06:37:34.840Z,10.48
2023-03-21T06:40:04.602Z,10.95
2023-03-21T06:42:32.642Z,8.60
2023-03-21T06:45:00.451Z,12.95
2023-03-21T06:47:28.316Z,9.45
2023-03-21T06:49:56.158Z,9.85
2023-03-21T06:52:23.560Z,9.90
2023-03-21T06:54:53.594Z,9.75
2023-03-21T06:57:21.996Z,9.93
2023-03-21T06:59:49.747Z,10.45
2023-03-21T07:02:18.354Z,8.88
2023-03-21T07:04:46.089Z,8.18
2023-03-21T07:07:14.190Z,7.43
2023-03-21T07:09:42.213Z,7.90
2023-03-21T07:12:10.571Z,6.68
2023-03-21T07:14:40.575Z,8.82
2023-03-21T07:17:08.276Z,7.55
2023-03-21T07:19:35.684Z,7.75
2023-03-21T07:22:03.041Z,7.62
2023-03-21T07:24:30.660Z,7.43
2023-03-21T07:26:58.044Z,7.87
2023-03-21T07:29:26.570Z,7.87
2023-03-21T07:31:54.268Z,8.55
2023-03-21T07:34:22.828Z,7.47
2023-03-21T07:36:51.005Z,8.70
2023-03-21T07:39:20.525Z,8.20
2023-03-21T07:41:47.990Z,8.77
2023-03-21T07:44:18.289Z,8.27
2023-03-21T07:46:45.922Z,7.60
2023-03-21T07:49:13.293Z,7.82
2023-03-21T07:51:40.815Z,7.50
2023-03-21T07:54:08.479Z,7.78
2023-03-21T07:56:36.397Z,7.78
2023-03-21T07:59:05.364Z,7.72
2023-03-21T08:01:33.079Z,8.07
2023-03-21T08:04:00.685Z,8.10
2023-03-21T08:06:28.539Z,7.70
2023-03-21T08:08:55.996Z,8.82
2023-03-21T08:11:24.651Z,8.20
2023-03-21T08:13:52.013Z,8.68
2023-03-21T08:16:19.574Z,8.38
2023-03-21T08:18:47.321Z,8.45
2023-03-21T08:21:14.679Z,9.07
2023-03-21T08:23:42.161Z,9.10
2023-03-21T08:26:10.396Z,8.52
2023-03-21T08:28:39.625Z,9.73
2023-03-21T08:31:08.869Z,9.52
2023-03-21T08:33:37.176Z,9.75
2023-03-21T08:36:05.391Z,9.25
2023-03-21T08:38:33.598Z,8.77
2023-03-21T08:41:01.351Z,9.75
2023-03-21T08:43:29.123Z,8.68
2023-03-21T08:45:56.628Z,8.50
2023-03-21T08:48:24.592Z,8.88
2023-03-21T08:50:51.989Z,8.63
2023-03-21T08:53:19.374Z,9.07
2023-03-21T08:55:47.057Z,9.65
2023-03-21T08:58:14.453Z,8.88
2023-03-21T09:00:41.845Z,9.50
2023-03-21T09:03:11.621Z,8.90
2023-03-21T09:05:39.492Z,9.70
2023-03-21T09:08:07.254Z,9.98
2023-03-21T09:10:34.854Z,8.73
2023-03-21T09:13:02.217Z,9.98
2023-03-21T09:15:29.800Z,10.10
2023-03-21T09:17:58.862Z,10.20
2023-03-21T09:20:31.037Z,9.32
2023-03-21T09:22:59.208Z,9.20
2023-03-21T09:25:31.290Z,10.30
2023-03-21T09:28:00.577Z,9.60
2023-03-21T09:30:29.504Z,9.60
2023-03-21T09:32:56.970Z,9.15
2023-03-21T09:35:24.869Z,9.25
2023-03-21T09:37:52.585Z,9.68
2023-03-21T09:40:43.004Z,8.55
2023-03-21T09:43:35.845Z,9.65
2023-03-21T09:46:09.161Z,9.75
2023-03-21T09:48:56.102Z,10.68
2023-03-21T09:51:26.190Z,9.90
2023-03-21T09:53:56.556Z,10.10
2023-03-21T09:56:26.045Z,9.20
2023-03-21T09:58:56.021Z,9.80
2023-03-21T10:01:30.058Z,9.55
2023-03-21T10:04:01.095Z,9.55
2023-03-21T10:06:30.383Z,8.25
2023-03-21T10:09:09.734Z,8.80
2023-03-21T10:11:44.284Z,8.20
2023-03-21T10:14:21.771Z,9.23
2023-03-21T10:16:56.730Z,8.93
2023-03-21T10:19:24.395Z,8.57
2023-03-21T10:22:00.739Z,8.00
2023-03-21T10:24:29.805Z,8.52
2023-03-21T10:26:57.208Z,7.75
2023-03-21T10:29:27.668Z,7.55
2023-03-21T10:31:55.818Z,8.27
2023-03-21T10:34:36.729Z,7.87
2023-03-21T10:37:04.521Z,8.57
2023-03-21T10:39:38.667Z,8.35
2023-03-21T10:42:06.741Z,8.48
2023-03-21T10:44:35.166Z,8.50
2023-03-21T10:47:07.226Z,9.43
2023-03-21T10:49:56.345Z,9.38
2023-03-21T10:52:27.483Z,8.55
2023-03-21T10:55:24.320Z,8.05
2023-03-21T10:57:54.015Z,8.13
2023-03-21T11:00:23.117Z,8.15
2023-03-21T11:02:51.383Z,8.07
2023-03-21T11:05:23.231Z,7.87
2023-03-21T11:08:01.409Z,7.75
2023-03-21T11:10:38.064Z,7.28
2023-03-21T11:13:08.190Z,8.63
2023-03-21T11:15:49.055Z,7.78
2023-03-21T11:18:22.275Z,7.68
2023-03-21T11:20:52.493Z,8.65
2023-03-21T11:23:20.938Z,9.40
2023-03-21T11:25:51.688Z,7.70
2023-03-21T11:28:23.484Z,9.23
2023-03-21T11:30:56.540Z,8.82
2023-03-21T11:33:33.440Z,8.45
2023-03-21T11:36:24.534Z,8.00
2023-03-21T11:39:01.119Z,7.65
2023-03-21T11:41:30.632Z,7.37
2023-03-21T11:43:58.442Z,8.13
2023-03-21T11:46:30.848Z,7.53
2023-03-21T11:48:58.902Z,8.45
2023-03-21T11:51:44.436Z,8.05
2023-03-21T11:54:17.913Z,8.15
2023-03-21T11:56:52.067Z,8.57
2023-03-21T11:59:58.151Z,7.35
2023-03-21T12:02:51.586Z,8.38
2023-03-21T12:05:21.845Z,7.95
2023-03-21T12:07:52.237Z,8.57
2023-03-21T12:10:58.071Z,7.95
2023-03-21T12:13:49.192Z,9.38
2023-03-21T12:16:57.707Z,8.55
2023-03-21T12:19:40.359Z,9.13
2023-03-21T12:22:17.708Z,9.02
2023-03-21T12:24:56.179Z,9.00
2023-03-21T12:27:51.303Z,10.20
2023-03-21T12:30:32.401Z,9.13
2023-03-21T12:33:18.281Z,9.25
2023-03-21T12:35:59.797Z,8.68
2023-03-21T12:38:40.696Z,9.07
2023-03-21T12:41:23.522Z,9.50
2023-03-21T12:43:52.805Z,8.80
2023-03-21T12:46:26.816Z,8.10
2023-03-21T12:49:03.034Z,8.35
2023-03-21T12:51:33.996Z,8.10
2023-03-21T12:54:06.358Z,8.45
2023-03-21T12:56:55.331Z,8.95
2023-03-21T12:59:42.345Z,8.63
2023-03-21T13:02:32.275Z,8.18
2023-03-21T13:05:05.995Z,7.90
2023-03-21T13:07:35.137Z,6.95
2023-03-21T13:10:04.781Z,7.47
2023-03-21T13:12:43.310Z,8.23
2023-03-21T13:15:30.892Z,8.50
2023-03-21T13:18:37.518Z,7.80
2023-03-21T13:21:25.942Z,7.80
2023-03-21T13:24:18.409Z,7.85
2023-03-21T13:26:50.046Z,8.10
2023-03-21T13:29:29.663Z,8.40
2023-03-21T13:32:05.812Z,7.70
2023-03-21T13:34:33.216Z,7.90
2023-03-21T13:37:00.824Z,8.57
2023-03-21T13:39:28.773Z,8.43
2023-03-21T13:41:56.575Z,7.87
2023-03-21T13:44:32.049Z,7.53
2023-03-21T13:47:04.356Z,7.45
2023-03-21T13:49:36.070Z,7.03
2023-03-21T13:52:27.486Z,7.43
2023-03-21T13:54:56.241Z,7.20
2023-03-21T13:57:30.479Z,7.60
2023-03-21T14:00:15.543Z,7.15
2023-03-21T14:03:08.532Z,7.07
2023-03-21T14:05:37.603Z,7.20
2023-03-21T14:08:15.752Z,7.43
2023-03-21T14:10:49.046Z,8.63
2023-03-21T14:13:19.480Z,7.90
2023-03-21T14:15:55.929Z,8.77
2023-03-21T14:18:35.296Z,8.40
2023-03-21T14:21:23.707Z,8.35
2023-03-21T14:24:05.148Z,8.65
2023-03-21T14:26:37.823Z,9.10
2023-03-21T14:29:09.619Z,8.50
2023-03-21T14:31:43.004Z,9.13
2023-03-21T14:34:10.654Z,9.43
2023-03-21T14:36:38.987Z,9.00
2023-03-21T14:39:31.491Z,8.98
2023-03-21T14:42:13.676Z,9.43
2023-03-21T14:44:54.519Z,9.10
2023-03-21T14:47:27.810Z,9.18
2023-03-21T14:49:56.389Z,9.00
2023-03-21T14:52:26.017Z,8.82
2023-03-21T14:54:53.506Z,9.25
2023-03-21T14:57:22.981Z,8.65
2023-03-21T14:59:51.995Z,8.90
2023-03-21T15:02:32.978Z,8.90
2023-03-21T15:05:21.990Z,8.35
2023-03-21T15:07:56.838Z,8.07
2023-03-21T15:10:25.267Z,7.47
2023-03-21T15:13:03.274Z,7.78
2023-03-21T15:15:31.272Z,7.30
2023-03-21T15:18:02.994Z,7.82
2023-03-21T15:20:40.056Z,8.15
2023-03-21T15:23:12.763Z,8.43
2023-03-21T15:25:40.834Z,8.32
2023-03-21T15:28:08.420Z,8.32
2023-03-21T15:30:36.037Z,8.45
2023-03-21T15:33:09.239Z,8.88
2023-03-21T15:35:41.528Z,8.75
2023-03-21T15:38:22.396Z,8.02
2023-03-21T15:40:49.758Z,9.13
2023-03-21T15:43:18.723Z,9.30
2023-03-21T15:45:55.761Z,9.02
2023-03-21T15:48:27.881Z,9.13
2023-03-21T15:50:55.129Z,9.07
2023-03-21T15:53:23.374Z,8.98
2023-03-21T15:55:57.004Z,9.40
2023-03-21T15:58:36.053Z,9.30
2023-03-21T16:01:08.536Z,9.93
2023-03-21T16:03:37.244Z,11.52
2023-03-21T16:06:16.619Z,15.27
2023-03-21T16:08:50.147Z,10.38
2023-03-21T16:11:25.645Z,9.35
2023-03-21T16:13:53.494Z,9.05
2023-03-21T16:16:28.332Z,9.68
2023-03-21T16:18:56.709Z,10.27
2023-03-21T16:21:26.512Z,8.88
2023-03-21T16:23:53.910Z,9.75
2023-03-21T16:26:23.334Z,9.68
2023-03-21T16:28:50.903Z,10.88
2023-03-21T16:31:20.884Z,11.25
2023-03-21T16:33:48.850Z,9.50
2023-03-21T16:36:24.191Z,8.80
2023-03-21T16:38:52.759Z,9.77
2023-03-21T16:41:20.367Z,11.15
2023-03-21T16:43:47.854Z,9.85
2023-03-21T16:46:25.417Z,10.55
2023-03-21T16:48:57.990Z,9.90
2023-03-21T16:51:33.340Z,10.02
2023-03-21T16:54:00.970Z,9.90
2023-03-21T16:56:37.525Z,9.65
2023-03-21T17:01:35.921Z,9.32
2023-03-21T17:04:03.364Z,9.10
2023-03-21T17:06:31.003Z,9.40
2023-03-21T17:08:58.835Z,8.68
2023-03-21T17:11:26.769Z,9.10
2023-03-21T17:13:54.574Z,8.88
2023-03-21T17:16:26.576Z,7.87
2023-03-21T17:18:54.514Z,9.57
2023-03-21T17:21:26.570Z,9.25
2023-03-21T17:23:53.944Z,9.77
2023-03-21T17:26:23.508Z,9.55
2023-03-21T17:28:55.248Z,9.50
2023-03-21T17:31:24.039Z,8.43
2023-03-21T17:33:51.427Z,9.90
2023-03-21T17:36:27.045Z,8.82
2023-03-21T17:38:55.429Z,10.85
2023-03-21T17:41:22.825Z,11.38
2023-03-21T17:43:51.617Z,12.63
2023-03-21T17:46:21.120Z,13.68
2023-03-21T17:48:48.670Z,12.90
2023-03-21T17:51:17.115Z,12.82
2023-03-21T17:53:45.502Z,12.18
2023-03-21T17:56:16.742Z,11.82
2023-03-21T17:58:44.104Z,10.77
2023-03-21T18:01:11.824Z,11.95
2023-03-21T18:03:39.437Z,10.85
2023-03-21T18:06:07.118Z,10.60
2023-03-21T18:08:34.477Z,11.50
2023-03-21T18:11:02.138Z,10.85
2023-03-21T18:13:29.495Z,9.93
2023-03-21T18:15:56.941Z,9.93
2023-03-21T18:18:27.134Z,13.13
2023-03-21T18:20:57.540Z,12.40
2023-03-21T18:23:25.466Z,13.55
2023-03-21T18:25:53.065Z,11.30
2023-03-21T18:28:21.384Z,14.87
2023-03-21T18:31:07.418Z,14.75
2023-03-21T18:33:40.353Z,14.05
2023-03-21T18:36:09.247Z,13.75
2023-03-21T18:38:37.082Z,18.87
2023-03-21T18:41:05.531Z,16.77
2023-03-21T18:46:21.110Z,14.60
2023-03-21T18:48:49.212Z,13.27
2023-03-21T18:51:17.772Z,11.07
2023-03-21T18:53:45.757Z,11.00
2023-03-21T18:56:36.898Z,10.98
2023-03-21T18:59:01.884Z,10.98
2023-03-21T19:01:29.794Z,10.85
2023-03-21T19:04:20.467Z,11.23
2023-03-21T19:06:47.879Z,11.60
2023-03-21T19:09:15.252Z,11.75
2023-03-21T19:11:42.865Z,12.27
2023-03-21T19:14:11.616Z,11.43
2023-03-21T19:17:02.099Z,11.27
2023-03-21T19:19:26.998Z,10.57
2023-03-21T19:21:54.496Z,10.23
2023-03-21T19:24:27.613Z,10.35
2023-03-21T19:26:56.464Z,10.60
2023-03-21T19:29:23.878Z,9.90
2023-03-21T19:31:51.613Z,10.52
2023-03-21T19:34:19.520Z,10.20
2023-03-21T19:36:51.509Z,10.80
2023-03-21T19:39:22.611Z,11.25
2023-03-21T19:41:50.980Z,10.65
2023-03-21T19:44:19.170Z,10.35
2023-03-21T19:46:48.411Z,9.98
2023-03-21T19:49:20.123Z,10.35
2023-03-21T19:51:47.977Z,9.80
2023-03-21T19:54:17.371Z,9.73
2023-03-21T19:56:47.559Z,9.02
2023-03-21T19:59:15.848Z,9.82
2023-03-21T20:01:44.264Z,10.60
2023-03-21T20:04:12.233Z,10.00
2023-03-21T20:06:39.675Z,8.88
2023-03-21T20:11:57.731Z,9.40
2023-03-21T20:14:25.272Z,9.93
2023-03-21T20:16:55.307Z,10.65
2023-03-21T20:19:23.156Z,10.18
2023-03-21T20:21:58.014Z,10.55
2023-03-21T20:24:27.479Z,10.77
2023-03-21T20:26:55.624Z,10.88
2023-03-21T20:32:11.557Z,10.65
2023-03-21T20:34:39.355Z,10.57
2023-03-21T20:37:07.102Z,10.20
2023-03-21T20:39:34.807Z,11.32
2023-03-21T20:42:02.500Z,10.00
2023-03-21T20:44:57.963Z,11.25
2023-03-21T20:47:17.572Z,13.93
2023-03-21T20:49:45.282Z,15.45
2023-03-21T20:52:52.117Z,14.52
2023-03-21T20:55:00.308Z,11.25
2023-03-21T20:57:27.748Z,10.07
2023-03-21T20:59:55.177Z,10.35
2023-03-21T21:02:23.042Z,9.63
2023-03-21T21:05:17.720Z,9.82
2023-03-21T21:07:43.177Z,9.15
2023-03-21T21:10:11.875Z,8.98
2023-03-21T21:12:39.545Z,9.18
2023-03-21T21:15:08.196Z,10.10
2023-03-21T21:18:02.029Z,10.20
2023-03-21T21:20:23.224Z,9.82
2023-03-21T21:23:00.557Z,10.32
2023-03-21T21:25:29.376Z,10.38
2023-03-21T21:27:56.784Z,10.50
2023-03-21T21:30:24.173Z,10.23
2023-03-21T21:32:51.831Z,10.23
2023-03-21T21:35:20.589Z,9.55
2023-03-21T21:37:48.854Z,10.45
2023-03-21T21:40:20.402Z,9.73
2023-03-21T21:42:47.966Z,10.57
2023-03-21T21:45:15.943Z,10.02
2023-03-21T21:47:43.926Z,9.43
2023-03-21T21:50:11.417Z,10.57
2023-03-21T21:52:39.042Z,9.85
2023-03-21T21:55:06.733Z,10.10
2023-03-21T21:57:34.587Z,11.45
2023-03-21T22:00:06.502Z,10.98
2023-03-21T22:05:08.808Z,9.95
2023-03-21T22:07:37.515Z,9.57
2023-03-21T22:10:05.397Z,10.48
2023-03-21T22:12:33.024Z,11.65
2023-03-21T22:15:00.489Z,10.63
2023-03-21T22:17:27.853Z,11.38
2023-03-21T22:20:05.097Z,10.82
2023-03-21T22:22:34.038Z,10.48
2023-03-21T22:25:02.113Z,10.95
2023-03-21T22:27:29.501Z,10.77
2023-03-21T22:29:56.890Z,11.55
2023-03-21T22:32:24.611Z,10.55
2023-03-21T22:34:51.957Z,10.35
2023-03-21T22:37:19.308Z,10.90
2023-03-21T22:39:46.966Z,10.18
2023-03-21T22:42:14.308Z,10.80
2023-03-21T22:44:41.663Z,10.80
2023-03-21T22:47:09.961Z,11.60
2023-03-21T22:49:37.952Z,10.68
2023-03-21T22:52:06.028Z,11.15
2023-03-21T22:54:33.660Z,11.85
2023-03-21T22:57:01.050Z,11.07
2023-03-21T22:59:28.638Z,10.73
2023-03-21T23:01:56.721Z,10.60
2023-03-21T23:04:25.056Z,11.88
2023-03-21T23:06:52.487Z,11.27
2023-03-21T23:09:20.482Z,11.10
2023-03-21T23:11:49.573Z,11.45
2023-03-21T23:14:17.488Z,10.57
2023-03-21T23:16:45.174Z,11.48
2023-03-21T23:19:12.510Z,12.27
2023-03-21T23:21:39.909Z,11.75
2023-03-21T23:24:07.938Z,11.75
2023-03-21T23:26:35.277Z,10.20
2023-03-21T23:29:03.875Z,10.65
2023-03-21T23:31:33.047Z,10.70
2023-03-21T23:34:00.640Z,11.50
2023-03-21T23:36:28.154Z,10.98
2023-03-21T23:38:55.761Z,12.80
2023-03-21T23:41:26.010Z,12.32
2023-03-21T23:43:53.455Z,11.77
2023-03-21T23:46:21.135Z,11.15
2023-03-21T23:48:48.619Z,11.10
2023-03-21T23:51:16.524Z,11.88
2023-03-21T23:53:45.246Z,11.05
2023-03-21T23:56:17.579Z,11.57
2023-03-21T23:58:45.590Z,11.93
